Atlanta, Georgia
Current Conditions -  °F | °C
As of 4:52 AM on Saturday 22 Nov 2014 (Local Time) from KATL Reporting Station
Clear Clear  
Wind Chill: 34°   Ceiling: Unl
Heat Index: 40°   Visibility: 10mi
Dew Point: 32°   Wind: 9mph
Humidity: 73%   Direction: 80°E
Pressure: 30.43"   Gusts: NA
Location:  33.75°N, 84.39°W
Report Text: KATL 220952Z 08008KT 10SM CLR 04/00 A3043 RMK AO2 SLP305 T00440000
Loading
Personal Weather Stations






























Interactive Weather Map New forecast layout! Learn more

10-Day Weather Forecast

Advertisements
Track Severe Weather on mobile